This is the latest recevied weather packets stored in our database for station/object DL8BNG-13. If no packets are shown the sender has not sent any weather packets the latest 10 day(s).
| Time | Temp. | Humidity | Pressure | Rain* | Wind** | Luminosity | Snow |
|---|---|---|---|---|---|---|---|
| 1777751102 | 15.56° C | 51% | - | 0 mm | - | - | - |
| 1777750203 | 16.11° C | 47% | - | 0 mm | - | - | - |
| 1777749302 | 16.67° C | 45% | - | 0 mm | - | - | - |
| 1777748402 | 17.78° C | 42% | - | 0 mm | - | - | - |
| 1777747502 | 18.89° C | 40% | - | 0 mm | - | - | - |
| 1777746602 | 19.44° C | 39% | - | 0 mm | - | - | - |
| 1777745703 | 21.67° C | 34% | - | 0 mm | - | - | - |
| 1777744802 | 22.22° C | 32% | - | 0 mm | - | - | - |
| 1777743902 | 22.78° C | 30% | - | 0 mm | - | - | - |
| 1777743002 | 23.89° C | 28% | - | 0 mm | - | - | - |
| 1777742102 | 24.44° C | 27% | - | 0 mm | - | - | - |
| 1777741202 | 25.56° C | 27% | - | 0 mm | - | - | - |
| 1777740302 | 26.67° C | 25% | - | 0 mm | - | - | - |
| 1777739402 | 26.67° C | 24% | - | 0 mm | - | - | - |
| 1777738502 | 26.67° C | 25% | - | 0 mm | - | - | - |
| 1777737602 | 26.67° C | 24% | - | 0 mm | - | - | - |
| 1777736703 | 27.78° C | 24% | - | 0 mm | - | - | - |
| 1777735802 | 27.22° C | 25% | - | 0 mm | - | - | - |
| 1777734903 | 27.22° C | 25% | - | 0 mm | - | - | - |
| 1777734002 | 27.22° C | 25% | - | 0 mm | - | - | - |
| 1777733102 | 27.22° C | 25% | - | 0 mm | - | - | - |
| 1777732203 | 27.22° C | 25% | - | 0 mm | - | - | - |
| 1777731303 | 27.22° C | 25% | - | 0 mm | - | - | - |
| 1777730402 | 27.22° C | 25% | - | 0 mm | - | - | - |
| 1777729502 | 27.22° C | 25% | - | 0 mm | - | - | - |
* Rain since midnight (hover to see other rain measurements)
** Current wind speed in m/s (hover to see current wind gust speed)